createdAt,value
2018-07-24T00:01:38.386Z,99.90
2018-07-24T00:04:06.650Z,99.90
2018-07-24T00:06:34.832Z,99.90
2018-07-24T00:09:03.238Z,99.90
2018-07-24T00:11:31.687Z,99.90
2018-07-24T00:13:59.889Z,99.90
2018-07-24T00:16:28.097Z,99.90
2018-07-24T00:18:56.270Z,99.90
2018-07-24T00:21:24.922Z,99.90
2018-07-24T00:23:53.793Z,99.90
2018-07-24T00:26:22.830Z,99.90
2018-07-24T00:28:51.049Z,99.90
2018-07-24T00:31:19.425Z,99.90
2018-07-24T00:33:47.600Z,99.90
2018-07-24T00:36:15.752Z,99.90
2018-07-24T00:38:44.417Z,99.90
2018-07-24T00:41:12.640Z,99.90
2018-07-24T00:43:40.845Z,99.90
2018-07-24T00:46:09.036Z,99.90
2018-07-24T00:48:37.209Z,99.90
2018-07-24T00:51:07.068Z,99.90
2018-07-24T00:53:35.257Z,99.90
2018-07-24T00:56:03.545Z,99.90
2018-07-24T00:58:31.760Z,99.90
2018-07-24T01:01:00.398Z,99.90
2018-07-24T01:03:28.598Z,99.90
2018-07-24T01:05:56.802Z,99.90
2018-07-24T01:08:24.951Z,99.90
2018-07-24T01:10:53.143Z,99.90
2018-07-24T01:13:21.345Z,99.90
2018-07-24T01:15:49.595Z,99.90
2018-07-24T01:18:17.786Z,99.90
2018-07-24T01:20:45.977Z,99.90
2018-07-24T01:23:14.237Z,99.90
2018-07-24T01:25:43.169Z,99.90
2018-07-24T01:28:11.354Z,99.90
2018-07-24T01:30:39.540Z,99.90
2018-07-24T01:33:07.747Z,99.90
2018-07-24T01:35:35.917Z,99.90
2018-07-24T01:38:04.094Z,99.90
2018-07-24T01:40:32.386Z,99.90
2018-07-24T01:43:00.582Z,99.90
2018-07-24T01:45:28.821Z,99.90
2018-07-24T01:47:57.043Z,99.90
2018-07-24T01:50:25.244Z,99.90
2018-07-24T01:52:54.365Z,99.90
2018-07-24T01:55:22.624Z,99.90
2018-07-24T01:57:50.881Z,99.90
2018-07-24T02:00:19.034Z,99.90
2018-07-24T02:02:47.229Z,99.90
2018-07-24T02:05:15.758Z,99.90
2018-07-24T02:07:43.989Z,99.90
2018-07-24T02:10:12.189Z,99.90
2018-07-24T02:12:40.346Z,99.90
2018-07-24T02:15:08.809Z,99.90
2018-07-24T02:17:37.439Z,99.90
2018-07-24T02:20:05.951Z,99.90
2018-07-24T02:22:34.099Z,99.90
2018-07-24T02:25:02.314Z,99.90
2018-07-24T02:27:30.547Z,99.90
2018-07-24T02:29:58.768Z,99.90
2018-07-24T02:32:26.974Z,99.90
2018-07-24T02:34:55.154Z,99.90
2018-07-24T02:37:23.397Z,99.90
2018-07-24T02:39:51.609Z,99.90
2018-07-24T02:42:19.833Z,99.90
2018-07-24T02:44:48.007Z,99.90
2018-07-24T02:47:16.416Z,99.90
2018-07-24T02:49:44.613Z,99.90
2018-07-24T02:52:13.009Z,99.90
2018-07-24T02:54:41.227Z,99.90
2018-07-24T02:57:09.465Z,99.90
2018-07-24T02:59:37.669Z,99.90
2018-07-24T03:02:06.662Z,99.90
2018-07-24T03:04:34.846Z,99.90
2018-07-24T03:07:03.110Z,99.90
2018-07-24T03:09:31.330Z,99.90
2018-07-24T03:11:59.495Z,99.90
2018-07-24T03:14:28.045Z,99.90
2018-07-24T03:16:56.197Z,99.90
2018-07-24T03:19:24.916Z,99.90
2018-07-24T03:21:53.083Z,99.90
2018-07-24T03:24:21.314Z,99.90
2018-07-24T03:26:49.749Z,99.90
2018-07-24T03:29:18.922Z,99.90
2018-07-24T03:31:47.146Z,99.90
2018-07-24T03:34:15.646Z,99.90
2018-07-24T03:36:43.827Z,99.90
2018-07-24T03:39:12.978Z,99.90
2018-07-24T03:41:41.846Z,99.90
2018-07-24T03:44:10.642Z,99.90
2018-07-24T03:46:38.796Z,99.90
2018-07-24T03:49:07.929Z,99.90
2018-07-24T03:51:36.099Z,99.90
2018-07-24T03:54:04.337Z,99.90
2018-07-24T03:56:32.807Z,99.90
2018-07-24T03:59:00.942Z,99.90
2018-07-24T04:01:29.132Z,99.90
2018-07-24T04:03:57.327Z,99.90
2018-07-24T04:06:25.592Z,99.90
2018-07-24T04:08:54.006Z,99.90
2018-07-24T04:11:22.179Z,99.90
2018-07-24T04:13:50.441Z,99.90
2018-07-24T04:16:18.694Z,99.90
2018-07-24T04:18:49.689Z,99.90
2018-07-24T04:21:18.980Z,99.90
2018-07-24T04:23:48.277Z,99.90
2018-07-24T04:26:16.484Z,99.90
2018-07-24T04:28:45.544Z,99.90
2018-07-24T04:31:14.800Z,99.90
2018-07-24T04:33:43.450Z,99.90
2018-07-24T04:36:11.670Z,99.90
2018-07-24T04:38:39.894Z,99.90
2018-07-24T04:41:08.102Z,99.90
2018-07-24T04:43:36.305Z,99.90
2018-07-24T04:46:04.990Z,99.90
2018-07-24T04:48:33.336Z,99.90
2018-07-24T04:51:01.554Z,99.90
2018-07-24T04:53:29.722Z,99.90
2018-07-24T04:55:57.953Z,99.90
2018-07-24T04:58:26.158Z,99.90
2018-07-24T05:00:56.037Z,99.90
2018-07-24T05:03:24.691Z,99.90
2018-07-24T05:05:52.868Z,99.90
2018-07-24T05:08:21.060Z,99.90
2018-07-24T05:10:49.246Z,99.90
2018-07-24T05:13:17.490Z,99.90
2018-07-24T05:15:45.701Z,99.90
2018-07-24T05:20:41.881Z,99.90
2018-07-24T05:23:10.107Z,99.90
2018-07-24T05:25:38.356Z,99.90
2018-07-24T05:28:06.548Z,99.90
2018-07-24T05:30:34.694Z,99.90
2018-07-24T05:33:02.994Z,99.90
2018-07-24T05:35:32.119Z,99.90
2018-07-24T05:38:00.333Z,99.90
2018-07-24T05:40:28.518Z,99.90
2018-07-24T05:42:56.786Z,99.90
2018-07-24T05:45:25.283Z,99.90
2018-07-24T05:47:53.512Z,99.90
2018-07-24T05:50:21.686Z,99.90
2018-07-24T05:52:49.879Z,99.90
2018-07-24T05:55:18.081Z,99.90
2018-07-24T05:57:46.266Z,99.90
2018-07-24T06:00:14.773Z,99.90
2018-07-24T06:02:43.837Z,99.90
2018-07-24T06:05:12.005Z,99.90
2018-07-24T06:07:40.184Z,99.90
2018-07-24T06:10:08.368Z,99.90
2018-07-24T06:12:36.601Z,99.90
2018-07-24T06:15:05.938Z,99.90
2018-07-24T06:17:34.870Z,99.90
2018-07-24T06:20:03.078Z,99.90
2018-07-24T06:22:31.353Z,99.90
2018-07-24T06:24:59.610Z,99.90
2018-07-24T06:27:27.813Z,99.90
2018-07-24T06:29:55.966Z,99.90
2018-07-24T06:32:24.113Z,99.90
2018-07-24T06:34:52.336Z,99.90
2018-07-24T06:37:20.493Z,99.90
2018-07-24T06:39:49.094Z,99.90
2018-07-24T06:42:17.246Z,99.90
2018-07-24T06:44:45.453Z,99.90
2018-07-24T06:47:13.697Z,99.90
2018-07-24T06:49:41.874Z,99.90
2018-07-24T06:52:10.059Z,99.90
2018-07-24T06:54:38.230Z,99.90
2018-07-24T06:57:06.404Z,99.30
2018-07-24T06:59:34.677Z,97.10
2018-07-24T07:02:02.954Z,95.50
2018-07-24T07:04:31.103Z,94.90
2018-07-24T07:06:59.379Z,94.80
2018-07-24T07:09:29.217Z,95.10
2018-07-24T07:11:57.928Z,93.60
2018-07-24T07:14:26.164Z,94.00
2018-07-24T07:16:54.398Z,92.30
2018-07-24T07:19:22.638Z,91.70
2018-07-24T07:21:51.177Z,92.10
2018-07-24T07:24:19.351Z,92.10
2018-07-24T07:26:47.567Z,91.40
2018-07-24T07:29:15.791Z,91.30
2018-07-24T07:31:43.928Z,91.40
2018-07-24T07:34:12.138Z,91.20
2018-07-24T07:36:40.319Z,91.10
2018-07-24T07:39:09.567Z,89.20
2018-07-24T07:41:37.778Z,90.80
2018-07-24T07:44:06.066Z,90.50
2018-07-24T07:46:34.267Z,88.70
2018-07-24T07:49:02.590Z,88.30
2018-07-24T07:51:31.291Z,90.00
2018-07-24T07:53:59.878Z,88.10
2018-07-24T07:56:28.048Z,86.60
2018-07-24T07:58:56.252Z,86.40
2018-07-24T08:01:24.473Z,86.10
2018-07-24T08:03:52.681Z,84.20
2018-07-24T08:06:20.854Z,83.40
2018-07-24T08:08:49.047Z,81.40
2018-07-24T08:11:17.227Z,84.90
2018-07-24T08:13:45.500Z,81.40
2018-07-24T08:16:14.441Z,80.50
2018-07-24T08:18:42.645Z,81.30
2018-07-24T08:21:10.818Z,82.00
2018-07-24T08:23:39.762Z,82.00
2018-07-24T08:26:07.957Z,80.80
2018-07-24T08:28:36.221Z,83.00
2018-07-24T08:31:04.430Z,81.10
2018-07-24T08:33:32.651Z,81.40
2018-07-24T08:36:01.075Z,82.10
2018-07-24T08:38:29.263Z,79.50
2018-07-24T08:40:57.460Z,79.80
2018-07-24T08:43:26.180Z,81.20
2018-07-24T08:45:54.410Z,78.30
2018-07-24T08:48:22.637Z,79.90
2018-07-24T08:50:50.803Z,78.60
2018-07-24T08:53:19.221Z,78.10
2018-07-24T08:55:47.424Z,77.80
2018-07-24T08:58:15.970Z,77.10
2018-07-24T09:00:44.150Z,74.90
2018-07-24T09:03:13.063Z,75.00
2018-07-24T09:05:41.210Z,75.00
2018-07-24T09:08:09.414Z,77.00
2018-07-24T09:10:39.419Z,77.00
2018-07-24T09:15:35.583Z,75.00
2018-07-24T09:18:03.741Z,73.50
2018-07-24T09:20:31.949Z,73.20
2018-07-24T09:23:00.142Z,74.00
2018-07-24T09:25:28.325Z,72.30
2018-07-24T09:27:56.554Z,72.80
2018-07-24T09:30:24.760Z,71.20
2018-07-24T09:32:53.337Z,70.10
2018-07-24T09:35:21.586Z,68.70
2018-07-24T09:37:49.764Z,70.40
2018-07-24T09:40:18.478Z,68.70
2018-07-24T09:42:46.730Z,67.60
2018-07-24T09:45:15.055Z,66.90
2018-07-24T09:47:43.224Z,66.70
2018-07-24T09:50:11.422Z,66.00
2018-07-24T09:52:39.622Z,68.10
2018-07-24T09:55:07.777Z,66.80
2018-07-24T09:57:35.949Z,62.50
2018-07-24T10:00:05.019Z,63.10
2018-07-24T10:02:33.255Z,62.90
2018-07-24T10:05:01.485Z,63.90
2018-07-24T10:07:29.714Z,64.20
2018-07-24T10:09:57.942Z,63.50
2018-07-24T10:12:26.180Z,64.90
2018-07-24T10:14:54.450Z,63.60
2018-07-24T10:17:23.242Z,62.60
2018-07-24T10:19:51.445Z,63.90
2018-07-24T10:22:20.056Z,64.00
2018-07-24T10:24:48.237Z,62.10
2018-07-24T10:27:17.226Z,62.50
2018-07-24T10:29:45.442Z,62.20
2018-07-24T10:32:13.644Z,63.50
2018-07-24T10:34:42.081Z,62.90
2018-07-24T10:37:10.284Z,60.00
2018-07-24T10:39:38.540Z,60.90
2018-07-24T10:42:06.748Z,59.20
2018-07-24T10:44:34.930Z,59.20
2018-07-24T10:47:03.107Z,58.50
2018-07-24T10:49:31.287Z,58.30
2018-07-24T10:51:59.460Z,59.00
2018-07-24T10:56:55.698Z,59.40
2018-07-24T10:59:23.858Z,57.70
2018-07-24T11:01:52.073Z,58.40
2018-07-24T11:06:48.169Z,60.50
2018-07-24T11:09:16.610Z,61.00
2018-07-24T11:11:45.074Z,61.60
2018-07-24T11:14:13.253Z,61.50
2018-07-24T11:16:41.826Z,61.80
2018-07-24T11:19:10.178Z,59.50
2018-07-24T11:21:38.353Z,59.00
2018-07-24T11:24:06.547Z,58.30
2018-07-24T11:26:36.076Z,59.70
2018-07-24T11:29:04.241Z,60.50
2018-07-24T11:31:32.426Z,60.40
2018-07-24T11:34:01.026Z,59.70
2018-07-24T11:36:29.210Z,59.20
2018-07-24T11:38:57.427Z,59.10
2018-07-24T11:41:25.629Z,58.80
2018-07-24T11:43:53.870Z,58.20
2018-07-24T11:46:22.133Z,56.40
2018-07-24T11:48:50.305Z,57.80
2018-07-24T11:51:18.497Z,57.00
2018-07-24T11:53:47.090Z,56.60
2018-07-24T11:56:16.840Z,59.20
2018-07-24T11:58:45.061Z,59.20
2018-07-24T12:01:13.882Z,58.10
2018-07-24T12:03:42.086Z,56.70
2018-07-24T12:06:10.266Z,57.60
2018-07-24T12:08:38.627Z,59.50
2018-07-24T12:11:07.466Z,56.10
2018-07-24T12:13:35.973Z,56.50
2018-07-24T12:16:04.097Z,55.30
2018-07-24T12:18:32.370Z,54.80
2018-07-24T12:21:00.531Z,56.40
2018-07-24T12:23:29.034Z,56.20
2018-07-24T12:25:57.210Z,56.70
2018-07-24T12:28:25.412Z,56.20
2018-07-24T12:30:53.597Z,55.80
2018-07-24T12:33:21.771Z,56.10
2018-07-24T12:35:49.975Z,57.10
2018-07-24T12:38:18.117Z,57.40
2018-07-24T12:40:46.323Z,57.30
2018-07-24T12:43:14.507Z,56.40
2018-07-24T12:45:42.649Z,56.10
2018-07-24T12:48:15.334Z,55.60
2018-07-24T12:50:43.530Z,54.90
2018-07-24T12:53:11.746Z,55.90
2018-07-24T12:55:39.963Z,55.80
2018-07-24T12:58:08.182Z,56.90
2018-07-24T13:00:36.359Z,56.40
2018-07-24T13:03:04.630Z,55.70
2018-07-24T13:05:32.821Z,54.40
2018-07-24T13:08:01.010Z,54.50
2018-07-24T13:10:29.210Z,56.60
2018-07-24T13:12:57.435Z,54.20
2018-07-24T13:15:25.609Z,55.00
2018-07-24T13:17:53.810Z,54.10
2018-07-24T13:22:49.954Z,55.40
2018-07-24T13:25:18.210Z,54.20
2018-07-24T13:27:46.409Z,53.40
2018-07-24T13:30:14.610Z,54.50
2018-07-24T13:32:42.787Z,56.20
2018-07-24T13:35:10.987Z,56.50
2018-07-24T13:37:39.185Z,57.30
2018-07-24T13:40:07.435Z,56.10
2018-07-24T13:42:36.409Z,54.10
2018-07-24T13:45:06.408Z,54.90
2018-07-24T13:47:34.545Z,54.00
2018-07-24T13:50:02.757Z,53.80
2018-07-24T13:52:30.955Z,54.70
2018-07-24T13:54:59.137Z,53.40
2018-07-24T13:57:27.325Z,52.80
2018-07-24T13:59:55.499Z,53.00
2018-07-24T14:02:23.675Z,52.30
2018-07-24T14:04:51.834Z,53.30
2018-07-24T14:07:20.013Z,51.30
2018-07-24T14:09:48.234Z,50.60
2018-07-24T14:12:17.124Z,49.10
2018-07-24T14:17:13.655Z,49.30
2018-07-24T14:19:41.883Z,49.90
2018-07-24T14:22:10.103Z,49.20
2018-07-24T14:24:38.274Z,49.30
2018-07-24T14:27:06.506Z,48.10
2018-07-24T14:29:34.768Z,47.80
2018-07-24T14:32:03.724Z,48.40
2018-07-24T14:34:31.898Z,47.70
2018-07-24T14:37:02.859Z,47.50
2018-07-24T14:39:31.027Z,47.40
2018-07-24T14:41:59.221Z,47.90
2018-07-24T14:44:27.398Z,48.30
2018-07-24T14:46:55.591Z,49.40
2018-07-24T14:49:23.894Z,49.10
2018-07-24T14:51:52.066Z,48.00
2018-07-24T14:54:20.275Z,47.10
2018-07-24T14:56:48.480Z,46.60
2018-07-24T14:59:16.631Z,45.50
2018-07-24T15:01:44.789Z,45.10
2018-07-24T15:04:12.980Z,44.80
2018-07-24T15:06:41.194Z,45.40
2018-07-24T15:09:11.568Z,44.20
2018-07-24T15:11:40.031Z,43.80
2018-07-24T15:14:08.312Z,43.50
2018-07-24T15:16:36.466Z,43.90
2018-07-24T15:19:04.686Z,44.80
2018-07-24T15:24:00.860Z,45.80
2018-07-24T15:26:29.054Z,46.10
2018-07-24T15:28:57.815Z,46.10
2018-07-24T15:31:25.974Z,47.70
2018-07-24T15:33:54.177Z,46.80
2018-07-24T15:36:22.397Z,46.90
2018-07-24T15:38:50.577Z,46.10
2018-07-24T15:41:19.472Z,45.40
2018-07-24T15:43:47.657Z,45.00
2018-07-24T15:46:17.758Z,45.10
2018-07-24T15:48:45.942Z,44.30
2018-07-24T15:51:14.138Z,45.40
2018-07-24T15:53:42.323Z,46.40
2018-07-24T15:56:12.068Z,45.90
2018-07-24T15:58:40.198Z,45.90
2018-07-24T16:01:08.423Z,45.30
2018-07-24T16:03:36.698Z,45.20
2018-07-24T16:06:04.919Z,45.70
2018-07-24T16:08:33.053Z,44.30
2018-07-24T16:11:01.262Z,45.20
2018-07-24T16:13:29.473Z,44.40
2018-07-24T16:15:57.800Z,43.90
2018-07-24T16:18:25.973Z,43.60
2018-07-24T16:20:54.142Z,43.80
2018-07-24T16:23:22.821Z,44.50
2018-07-24T16:25:51.010Z,44.00
2018-07-24T16:28:19.171Z,43.20
2018-07-24T16:30:47.358Z,42.90
2018-07-24T16:33:15.573Z,43.60
2018-07-24T16:35:44.380Z,44.70
2018-07-24T16:38:12.651Z,44.50
2018-07-24T16:40:40.849Z,45.80
2018-07-24T16:43:09.053Z,46.20
2018-07-24T16:45:37.290Z,46.80
2018-07-24T16:48:05.502Z,47.40
2018-07-24T16:50:33.783Z,47.00
2018-07-24T16:53:01.910Z,47.40
2018-07-24T16:55:30.151Z,48.00
2018-07-24T16:57:58.403Z,47.60
2018-07-24T17:00:26.968Z,46.80
2018-07-24T17:02:55.411Z,46.60
2018-07-24T17:05:23.546Z,47.60
2018-07-24T17:07:53.618Z,48.50
2018-07-24T17:10:21.825Z,46.90
2018-07-24T17:12:49.993Z,49.00
2018-07-24T17:15:18.734Z,49.30
2018-07-24T17:17:47.911Z,48.50
2018-07-24T17:20:16.105Z,48.90
2018-07-24T17:22:45.218Z,49.10
2018-07-24T17:25:13.453Z,49.10
2018-07-24T17:27:41.639Z,49.20
2018-07-24T17:30:10.571Z,51.00
2018-07-24T17:32:38.735Z,51.10
2018-07-24T17:35:06.929Z,51.60
2018-07-24T17:37:35.117Z,52.40
2018-07-24T17:40:03.755Z,51.60
2018-07-24T17:42:31.933Z,52.30
2018-07-24T17:45:01.045Z,52.80
2018-07-24T17:47:29.253Z,53.00
2018-07-24T17:49:57.442Z,52.70
2018-07-24T17:52:25.615Z,53.30
2018-07-24T17:54:53.837Z,53.80
2018-07-24T17:57:22.059Z,55.00
2018-07-24T17:59:50.284Z,54.30
2018-07-24T18:02:18.446Z,54.50
2018-07-24T18:04:46.667Z,55.50
2018-07-24T18:07:15.162Z,55.70
2018-07-24T18:09:43.971Z,56.40
2018-07-24T18:12:12.201Z,57.30
2018-07-24T18:14:40.414Z,59.70
2018-07-24T18:17:12.301Z,59.90
2018-07-24T18:19:40.554Z,59.10
2018-07-24T18:22:08.758Z,59.60
2018-07-24T18:24:36.962Z,60.40
2018-07-24T18:27:05.559Z,61.00
2018-07-24T18:29:33.781Z,60.30
2018-07-24T18:32:02.001Z,60.50
2018-07-24T18:34:30.214Z,61.00
2018-07-24T18:36:58.405Z,61.30
2018-07-24T18:39:26.582Z,61.10
2018-07-24T18:41:55.119Z,62.30
2018-07-24T18:44:23.305Z,64.40
2018-07-24T18:46:51.496Z,66.40
2018-07-24T18:49:19.738Z,68.10
2018-07-24T18:54:15.896Z,68.50
2018-07-24T18:56:44.113Z,70.40
2018-07-24T18:59:12.281Z,71.40
2018-07-24T19:01:40.417Z,72.10
2018-07-24T19:04:08.626Z,72.60
2018-07-24T19:06:36.866Z,73.10
2018-07-24T19:09:08.249Z,75.60
2018-07-24T19:11:36.692Z,75.60
2018-07-24T19:14:04.837Z,77.20
2018-07-24T19:16:33.136Z,78.60
2018-07-24T19:19:01.418Z,80.00
2018-07-24T19:21:29.632Z,80.90
2018-07-24T19:23:57.834Z,81.30
2018-07-24T19:26:26.039Z,81.10
2018-07-24T19:28:54.238Z,81.60
2018-07-24T19:31:22.567Z,84.30
2018-07-24T19:33:50.707Z,84.90
2018-07-24T19:36:18.884Z,85.70
2018-07-24T19:38:47.062Z,86.40
2018-07-24T19:41:15.782Z,87.20
2018-07-24T19:43:44.095Z,88.40
2018-07-24T19:46:12.261Z,89.40
2018-07-24T19:48:40.463Z,90.60
2018-07-24T19:51:08.641Z,90.50
2018-07-24T19:53:36.787Z,91.30
2018-07-24T19:56:05.365Z,91.80
2018-07-24T19:58:33.616Z,92.70
2018-07-24T20:01:01.850Z,92.80
2018-07-24T20:03:30.166Z,93.40
2018-07-24T20:05:58.285Z,94.20
2018-07-24T20:08:27.265Z,95.60
2018-07-24T20:10:55.481Z,96.50
2018-07-24T20:13:23.702Z,97.70
2018-07-24T20:15:51.946Z,98.50
2018-07-24T20:18:20.120Z,99.80
2018-07-24T20:20:49.030Z,99.90
2018-07-24T20:23:17.359Z,99.90
2018-07-24T20:25:45.433Z,99.90
2018-07-24T20:28:13.596Z,99.90
2018-07-24T20:30:41.866Z,99.90
2018-07-24T20:33:10.040Z,99.90
2018-07-24T20:35:38.288Z,99.90
2018-07-24T20:38:06.436Z,99.90
2018-07-24T20:40:34.609Z,99.90
2018-07-24T20:43:02.803Z,99.90
2018-07-24T20:45:30.944Z,99.90
2018-07-24T20:47:59.139Z,99.90
2018-07-24T20:50:27.347Z,99.90
2018-07-24T20:52:55.726Z,99.90
2018-07-24T20:55:23.904Z,99.90
2018-07-24T20:57:53.065Z,99.90
2018-07-24T21:00:22.890Z,99.90
2018-07-24T21:02:51.129Z,99.90
2018-07-24T21:05:19.424Z,99.90
2018-07-24T21:07:47.661Z,99.90
2018-07-24T21:10:17.489Z,99.90
2018-07-24T21:12:46.970Z,99.90
2018-07-24T21:15:16.760Z,99.90
2018-07-24T21:17:44.963Z,99.90
2018-07-24T21:20:13.171Z,99.90
2018-07-24T21:22:41.390Z,99.90
2018-07-24T21:25:09.551Z,99.90
2018-07-24T21:27:37.780Z,99.90
2018-07-24T21:30:06.920Z,99.90
2018-07-24T21:32:35.145Z,99.90
2018-07-24T21:35:03.365Z,99.90
2018-07-24T21:37:32.149Z,99.90
2018-07-24T21:40:01.844Z,99.90
2018-07-24T21:42:30.081Z,99.90
2018-07-24T21:44:59.067Z,99.90
2018-07-24T21:47:27.610Z,99.90
2018-07-24T21:49:55.795Z,99.90
2018-07-24T21:52:24.064Z,99.90
2018-07-24T21:54:52.586Z,99.90
2018-07-24T21:59:48.801Z,99.90
2018-07-24T22:02:17.787Z,99.90
2018-07-24T22:04:46.111Z,99.90
2018-07-24T22:07:14.910Z,99.90
2018-07-24T22:09:43.185Z,99.90
2018-07-24T22:12:11.382Z,99.90
2018-07-24T22:14:39.627Z,99.90
2018-07-24T22:17:07.757Z,99.90
2018-07-24T22:19:35.926Z,99.90
2018-07-24T22:22:04.089Z,99.90
2018-07-24T22:24:32.309Z,99.90
2018-07-24T22:27:00.482Z,99.90
2018-07-24T22:29:28.673Z,99.90
2018-07-24T22:31:56.891Z,99.90
2018-07-24T22:34:25.131Z,99.90
2018-07-24T22:36:53.325Z,99.90
2018-07-24T22:39:21.485Z,99.90
2018-07-24T22:41:49.687Z,99.90
2018-07-24T22:44:17.865Z,99.90
2018-07-24T22:46:46.422Z,99.90
2018-07-24T22:49:14.756Z,99.90
2018-07-24T22:51:42.923Z,99.90
2018-07-24T22:54:11.510Z,99.90
2018-07-24T22:56:39.718Z,99.90
2018-07-24T22:59:07.888Z,99.90
2018-07-24T23:01:36.060Z,99.90
2018-07-24T23:04:06.066Z,99.90
2018-07-24T23:06:34.266Z,99.90
2018-07-24T23:09:02.482Z,99.90
2018-07-24T23:11:30.669Z,99.90
2018-07-24T23:13:58.841Z,99.90
2018-07-24T23:16:27.111Z,99.90
2018-07-24T23:18:55.305Z,99.90
2018-07-24T23:21:23.493Z,99.90
2018-07-24T23:23:51.653Z,99.90
2018-07-24T23:26:19.840Z,99.90
2018-07-24T23:28:48.033Z,99.90
2018-07-24T23:31:17.391Z,99.90
2018-07-24T23:33:45.551Z,99.90
2018-07-24T23:36:13.741Z,99.90
2018-07-24T23:38:42.653Z,99.90
2018-07-24T23:41:10.838Z,99.90
2018-07-24T23:43:39.022Z,99.90
2018-07-24T23:46:07.185Z,99.90
2018-07-24T23:48:35.358Z,99.90
2018-07-24T23:51:03.547Z,99.90
2018-07-24T23:53:32.398Z,99.90
2018-07-24T23:56:00.586Z,99.90
2018-07-24T23:58:28.803Z,99.90
